sensor_id;sensor_type;location;lat;lon;timestamp;pressure;altitude;pressure_sealevel;temperature;humidity
31595;BME280;18200;48.726;8.892;2023-02-11T00:01:18;98716.47;;;9.77;36.29
31595;BME280;18200;48.726;8.892;2023-02-11T00:05:19;98716.06;;;9.70;35.62
31595;BME280;18200;48.726;8.892;2023-02-11T00:09:19;98710.75;;;9.29;37.50
31595;BME280;18200;48.726;8.892;2023-02-11T00:13:20;98708.16;;;8.97;37.79
31595;BME280;18200;48.726;8.892;2023-02-11T00:17:20;98706.56;;;9.09;36.99
31595;BME280;18200;48.726;8.892;2023-02-11T00:21:23;98707.56;;;9.41;37.09
31595;BME280;18200;48.726;8.892;2023-02-11T00:25:24;98715.91;;;9.39;36.84
31595;BME280;18200;48.726;8.892;2023-02-11T00:29:24;98710.94;;;9.60;36.40
31595;BME280;18200;48.726;8.892;2023-02-11T00:33:24;98705.06;;;8.44;38.03
31595;BME280;18200;48.726;8.892;2023-02-11T00:37:25;98699.59;;;8.95;37.84
31595;BME280;18200;48.726;8.892;2023-02-11T00:41:25;98692.09;;;9.10;37.28
31595;BME280;18200;48.726;8.892;2023-02-11T00:45:26;98695.03;;;8.95;37.08
31595;BME280;18200;48.726;8.892;2023-02-11T00:49:28;98685.53;;;8.89;37.17
31595;BME280;18200;48.726;8.892;2023-02-11T00:53:29;98694.34;;;9.03;37.42
31595;BME280;18200;48.726;8.892;2023-02-11T00:57:29;98698.63;;;9.31;37.17
31595;BME280;18200;48.726;8.892;2023-02-11T01:01:30;98712.03;;;9.18;37.19
31595;BME280;18200;48.726;8.892;2023-02-11T01:05:30;98706.06;;;9.07;37.03
31595;BME280;18200;48.726;8.892;2023-02-11T01:09:30;98695.47;;;9.02;37.05
31595;BME280;18200;48.726;8.892;2023-02-11T01:13:35;98694.63;;;8.88;36.78
31595;BME280;18200;48.726;8.892;2023-02-11T01:17:36;98685.63;;;8.52;38.20
31595;BME280;18200;48.726;8.892;2023-02-11T01:21:36;98678.91;;;8.54;38.94
31595;BME280;18200;48.726;8.892;2023-02-11T01:25:37;98680.81;;;8.68;38.05
31595;BME280;18200;48.726;8.892;2023-02-11T01:29:37;98663.25;;;8.62;38.18
31595;BME280;18200;48.726;8.892;2023-02-11T01:33:38;98661.72;;;8.88;38.08
31595;BME280;18200;48.726;8.892;2023-02-11T01:37:39;98655.22;;;9.16;37.52
31595;BME280;18200;48.726;8.892;2023-02-11T01:41:41;98659.53;;;8.90;37.28
31595;BME280;18200;48.726;8.892;2023-02-11T01:49:58;98642.34;;;8.77;36.35
31595;BME280;18200;48.726;8.892;2023-02-11T01:54:02;98644.88;;;8.55;38.59
31595;BME280;18200;48.726;8.892;2023-02-11T01:58:22;98643.28;;;8.54;38.31
31595;BME280;18200;48.726;8.892;2023-02-11T02:02:27;98644.19;;;8.49;38.49
31595;BME280;18200;48.726;8.892;2023-02-11T02:06:42;98643.63;;;8.66;37.82
31595;BME280;18200;48.726;8.892;2023-02-11T02:10:45;98632.44;;;8.32;38.43
31595;BME280;18200;48.726;8.892;2023-02-11T02:14:50;98631.06;;;8.34;38.19
31595;BME280;18200;48.726;8.892;2023-02-11T02:37:00;98614.84;;;8.85;38.06
31595;BME280;18200;48.726;8.892;2023-02-11T02:41:13;98615.84;;;8.76;38.18
31595;BME280;18200;48.726;8.892;2023-02-11T02:45:15;98615.56;;;8.77;37.48
31595;BME280;18200;48.726;8.892;2023-02-11T02:49:16;98592.31;;;8.59;37.44
31595;BME280;18200;48.726;8.892;2023-02-11T02:53:32;98598.97;;;8.62;37.74
31595;BME280;18200;48.726;8.892;2023-02-11T03:02:28;98602.13;;;8.64;37.03
31595;BME280;18200;48.726;8.892;2023-02-11T03:06:34;98598.88;;;8.53;38.11
31595;BME280;18200;48.726;8.892;2023-02-11T03:10:43;98606.59;;;8.68;37.97
31595;BME280;18200;48.726;8.892;2023-02-11T03:14:44;98602.13;;;8.50;37.80
31595;BME280;18200;48.726;8.892;2023-02-11T03:18:49;98594.19;;;8.45;37.98
31595;BME280;18200;48.726;8.892;2023-02-11T03:23:07;98599.06;;;8.24;38.16
31595;BME280;18200;48.726;8.892;2023-02-11T03:27:31;98600.31;;;8.32;38.54
31595;BME280;18200;48.726;8.892;2023-02-11T03:31:40;98598.94;;;8.48;38.67
31595;BME280;18200;48.726;8.892;2023-02-11T03:35:51;98600.75;;;8.66;37.98
31595;BME280;18200;48.726;8.892;2023-02-11T03:40:01;98582.66;;;7.66;38.90
31595;BME280;18200;48.726;8.892;2023-02-11T03:44:03;98569.25;;;7.34;40.71
31595;BME280;18200;48.726;8.892;2023-02-11T03:48:11;98585.06;;;7.81;39.69
31595;BME280;18200;48.726;8.892;2023-02-11T03:52:14;98575.66;;;8.16;38.51
31595;BME280;18200;48.726;8.892;2023-02-11T03:56:19;98588.09;;;7.94;39.79
31595;BME280;18200;48.726;8.892;2023-02-11T04:00:21;98584.66;;;7.74;39.42
31595;BME280;18200;48.726;8.892;2023-02-11T04:04:28;98568.19;;;8.45;38.80
31595;BME280;18200;48.726;8.892;2023-02-11T04:08:28;98575.94;;;8.47;39.27
31595;BME280;18200;48.726;8.892;2023-02-11T04:12:29;98579.22;;;8.30;39.23
31595;BME280;18200;48.726;8.892;2023-02-11T04:16:29;98571.53;;;8.24;38.87
31595;BME280;18200;48.726;8.892;2023-02-11T04:20:30;98581.72;;;8.81;38.10
31595;BME280;18200;48.726;8.892;2023-02-11T04:24:30;98596.19;;;8.80;37.88
31595;BME280;18200;48.726;8.892;2023-02-11T04:28:30;98600.56;;;8.90;38.38
31595;BME280;18200;48.726;8.892;2023-02-11T04:32:31;98595.66;;;7.54;40.88
31595;BME280;18200;48.726;8.892;2023-02-11T04:36:31;98594.38;;;8.03;39.92
31595;BME280;18200;48.726;8.892;2023-02-11T04:40:32;98589.22;;;8.52;39.45
31595;BME280;18200;48.726;8.892;2023-02-11T04:44:32;98586.06;;;8.18;39.75
31595;BME280;18200;48.726;8.892;2023-02-11T04:48:33;98584.84;;;8.29;39.83
31595;BME280;18200;48.726;8.892;2023-02-11T04:52:34;98582.16;;;7.97;40.43
31595;BME280;18200;48.726;8.892;2023-02-11T04:56:34;98575.28;;;8.23;40.64
31595;BME280;18200;48.726;8.892;2023-02-11T05:00:35;98585.66;;;8.43;40.33
31595;BME280;18200;48.726;8.892;2023-02-11T05:04:35;98582.38;;;8.00;41.05
31595;BME280;18200;48.726;8.892;2023-02-11T05:08:35;98588.63;;;8.28;40.76
31595;BME280;18200;48.726;8.892;2023-02-11T05:12:36;98584.22;;;9.27;39.12
31595;BME280;18200;48.726;8.892;2023-02-11T05:16:36;98563.88;;;9.12;39.18
31595;BME280;18200;48.726;8.892;2023-02-11T05:20:37;98561.38;;;8.67;39.60
31595;BME280;18200;48.726;8.892;2023-02-11T05:24:38;98559.03;;;9.14;38.80
31595;BME280;18200;48.726;8.892;2023-02-11T05:28:39;98547.97;;;9.29;38.91
31595;BME280;18200;48.726;8.892;2023-02-11T05:32:39;98532.13;;;9.42;38.69
31595;BME280;18200;48.726;8.892;2023-02-11T05:36:39;98540.56;;;9.71;38.19
31595;BME280;18200;48.726;8.892;2023-02-11T05:40:40;98534.22;;;9.67;38.78
31595;BME280;18200;48.726;8.892;2023-02-11T05:44:40;98508.25;;;9.84;37.91
31595;BME280;18200;48.726;8.892;2023-02-11T05:48:41;98508.59;;;9.61;38.58
31595;BME280;18200;48.726;8.892;2023-02-11T05:52:41;98482.59;;;10.23;37.92
31595;BME280;18200;48.726;8.892;2023-02-11T05:56:42;98493.75;;;10.47;38.13
31595;BME280;18200;48.726;8.892;2023-02-11T06:00:42;98507.31;;;9.80;39.15
31595;BME280;18200;48.726;8.892;2023-02-11T06:04:43;98520.72;;;9.80;39.40
31595;BME280;18200;48.726;8.892;2023-02-11T06:08:43;98526.13;;;9.89;39.20
31595;BME280;18200;48.726;8.892;2023-02-11T06:12:43;98529.06;;;8.99;40.69
31595;BME280;18200;48.726;8.892;2023-02-11T06:16:44;98517.81;;;10.21;39.17
31595;BME280;18200;48.726;8.892;2023-02-11T06:20:44;98530.25;;;10.56;38.09
31595;BME280;18200;48.726;8.892;2023-02-11T06:24:45;98546.38;;;10.56;38.76
31595;BME280;18200;48.726;8.892;2023-02-11T06:28:45;98548.41;;;10.90;38.08
31595;BME280;18200;48.726;8.892;2023-02-11T06:32:46;98555.78;;;10.28;39.39
31595;BME280;18200;48.726;8.892;2023-02-11T06:36:46;98551.97;;;10.29;39.28
31595;BME280;18200;48.726;8.892;2023-02-11T06:40:47;98536.00;;;10.02;39.84
31595;BME280;18200;48.726;8.892;2023-02-11T06:44:48;98529.75;;;10.46;39.28
31595;BME280;18200;48.726;8.892;2023-02-11T06:48:48;98538.69;;;10.72;38.13
31595;BME280;18200;48.726;8.892;2023-02-11T06:52:49;98535.75;;;11.08;38.25
31595;BME280;18200;48.726;8.892;2023-02-11T06:56:49;98541.16;;;11.08;37.64
31595;BME280;18200;48.726;8.892;2023-02-11T07:00:49;98544.00;;;11.03;37.75
31595;BME280;18200;48.726;8.892;2023-02-11T07:04:51;98552.41;;;10.53;39.15
31595;BME280;18200;48.726;8.892;2023-02-11T07:08:52;98550.94;;;9.86;40.01
31595;BME280;18200;48.726;8.892;2023-02-11T07:12:52;98554.59;;;10.51;39.29
31595;BME280;18200;48.726;8.892;2023-02-11T07:16:52;98543.97;;;10.85;38.75
31595;BME280;18200;48.726;8.892;2023-02-11T07:20:53;98553.91;;;10.85;38.57
31595;BME280;18200;48.726;8.892;2023-02-11T07:24:53;98550.66;;;11.05;38.45
31595;BME280;18200;48.726;8.892;2023-02-11T07:28:54;98545.13;;;11.53;37.69
31595;BME280;18200;48.726;8.892;2023-02-11T07:32:55;98545.13;;;11.36;37.82
31595;BME280;18200;48.726;8.892;2023-02-11T07:36:55;98551.00;;;11.72;37.58
31595;BME280;18200;48.726;8.892;2023-02-11T07:41:02;98559.53;;;11.91;37.04
31595;BME280;18200;48.726;8.892;2023-02-11T07:45:03;98580.69;;;10.99;39.05
31595;BME280;18200;48.726;8.892;2023-02-11T07:49:03;98592.66;;;10.45;40.00
31595;BME280;18200;48.726;8.892;2023-02-11T07:53:04;98569.66;;;11.26;38.91
31595;BME280;18200;48.726;8.892;2023-02-11T07:57:04;98574.44;;;11.80;37.87
31595;BME280;18200;48.726;8.892;2023-02-11T08:01:07;98568.53;;;11.27;38.85
31595;BME280;18200;48.726;8.892;2023-02-11T08:05:07;98559.81;;;12.15;37.84
31595;BME280;18200;48.726;8.892;2023-02-11T08:09:12;98550.19;;;11.89;37.79
31595;BME280;18200;48.726;8.892;2023-02-11T08:13:13;98544.91;;;12.26;37.38
31595;BME280;18200;48.726;8.892;2023-02-11T08:17:13;98550.03;;;12.48;36.46
31595;BME280;18200;48.726;8.892;2023-02-11T08:21:14;98544.88;;;13.22;35.45
31595;BME280;18200;48.726;8.892;2023-02-11T08:25:14;98547.72;;;12.97;35.55
31595;BME280;18200;48.726;8.892;2023-02-11T08:29:15;98553.31;;;13.21;34.72
31595;BME280;18200;48.726;8.892;2023-02-11T08:33:16;98545.00;;;13.05;35.27
31595;BME280;18200;48.726;8.892;2023-02-11T08:37:17;98552.13;;;13.72;34.68
31595;BME280;18200;48.726;8.892;2023-02-11T08:41:17;98540.84;;;13.90;34.76
31595;BME280;18200;48.726;8.892;2023-02-11T08:45:17;98538.84;;;13.05;35.72
31595;BME280;18200;48.726;8.892;2023-02-11T08:49:18;98540.16;;;13.93;34.89
31595;BME280;18200;48.726;8.892;2023-02-11T08:53:19;98537.47;;;13.93;35.28
31595;BME280;18200;48.726;8.892;2023-02-11T08:57:19;98523.63;;;13.62;35.20
31595;BME280;18200;48.726;8.892;2023-02-11T09:01:23;98531.16;;;13.89;34.80
31595;BME280;18200;48.726;8.892;2023-02-11T09:05:24;98521.16;;;14.59;33.79
31595;BME280;18200;48.726;8.892;2023-02-11T09:09:24;98519.00;;;14.89;34.63
31595;BME280;18200;48.726;8.892;2023-02-11T09:13:24;98525.44;;;14.72;34.19
31595;BME280;18200;48.726;8.892;2023-02-11T09:17:25;98519.25;;;15.35;33.74
31595;BME280;18200;48.726;8.892;2023-02-11T09:21:26;98510.88;;;15.52;33.45
31595;BME280;18200;48.726;8.892;2023-02-11T09:25:26;98514.78;;;16.10;32.29
31595;BME280;18200;48.726;8.892;2023-02-11T09:29:27;98526.03;;;16.71;31.71
31595;BME280;18200;48.726;8.892;2023-02-11T09:33:27;98509.69;;;16.52;32.20
31595;BME280;18200;48.726;8.892;2023-02-11T09:37:28;98502.41;;;17.06;31.63
31595;BME280;18200;48.726;8.892;2023-02-11T09:45:54;98505.41;;;17.01;31.37
31595;BME280;18200;48.726;8.892;2023-02-11T09:50:00;98503.59;;;18.01;30.14
31595;BME280;18200;48.726;8.892;2023-02-11T09:54:29;98502.75;;;18.20;30.12
31595;BME280;18200;48.726;8.892;2023-02-11T09:58:34;98518.13;;;18.31;29.99
31595;BME280;18200;48.726;8.892;2023-02-11T10:02:57;98525.78;;;18.94;28.52
31595;BME280;18200;48.726;8.892;2023-02-11T10:07:07;98519.84;;;18.62;28.89
31595;BME280;18200;48.726;8.892;2023-02-11T10:11:32;98519.81;;;19.37;28.56
31595;BME280;18200;48.726;8.892;2023-02-11T10:15:48;98519.59;;;19.82;27.91
31595;BME280;18200;48.726;8.892;2023-02-11T10:24:01;98524.88;;;19.68;28.59
31595;BME280;18200;48.726;8.892;2023-02-11T10:28:15;98516.78;;;20.12;27.46
31595;BME280;18200;48.726;8.892;2023-02-11T10:32:43;98521.88;;;20.13;27.77
31595;BME280;18200;48.726;8.892;2023-02-11T10:36:45;98535.31;;;20.73;26.38
31595;BME280;18200;48.726;8.892;2023-02-11T10:40:46;98532.75;;;20.98;26.01
31595;BME280;18200;48.726;8.892;2023-02-11T10:44:57;98533.47;;;19.70;27.70
31595;BME280;18200;48.726;8.892;2023-02-11T10:48:58;98520.31;;;19.46;29.90
31595;BME280;18200;48.726;8.892;2023-02-11T10:53:19;98520.16;;;19.65;28.63
31595;BME280;18200;48.726;8.892;2023-02-11T10:57:20;98506.72;;;20.20;28.72
31595;BME280;18200;48.726;8.892;2023-02-11T11:01:20;98496.97;;;19.82;28.32
31595;BME280;18200;48.726;8.892;2023-02-11T11:05:35;98486.63;;;19.61;29.48
31595;BME280;18200;48.726;8.892;2023-02-11T11:09:51;98481.34;;;19.16;29.78
31595;BME280;18200;48.726;8.892;2023-02-11T11:22:19;98480.13;;;21.04;26.31
31595;BME280;18200;48.726;8.892;2023-02-11T11:26:21;98477.22;;;20.29;27.05
31595;BME280;18200;48.726;8.892;2023-02-11T11:30:26;98474.50;;;20.83;27.08
31595;BME280;18200;48.726;8.892;2023-02-11T11:34:30;98473.22;;;20.70;27.40
31595;BME280;18200;48.726;8.892;2023-02-11T11:38:31;98483.69;;;21.12;27.00
31595;BME280;18200;48.726;8.892;2023-02-11T11:42:36;98489.94;;;20.58;26.66
31595;BME280;18200;48.726;8.892;2023-02-11T11:46:40;98488.38;;;21.11;26.50
31595;BME280;18200;48.726;8.892;2023-02-11T11:50:45;98484.25;;;21.42;25.75
31595;BME280;18200;48.726;8.892;2023-02-11T11:54:54;98481.06;;;21.36;26.14
31595;BME280;18200;48.726;8.892;2023-02-11T11:58:59;98480.88;;;21.01;27.53
31595;BME280;18200;48.726;8.892;2023-02-11T12:16:10;98482.50;;;20.14;28.54
31595;BME280;18200;48.726;8.892;2023-02-11T12:24:55;98466.00;;;20.99;27.21
31595;BME280;18200;48.726;8.892;2023-02-11T12:29:13;98464.50;;;21.05;26.84
31595;BME280;18200;48.726;8.892;2023-02-11T12:38:16;98468.03;;;22.05;26.08
31595;BME280;18200;48.726;8.892;2023-02-11T12:46:49;98472.81;;;19.80;28.93
31595;BME280;18200;48.726;8.892;2023-02-11T12:51:10;98470.78;;;19.41;29.52
31595;BME280;18200;48.726;8.892;2023-02-11T12:55:21;98464.19;;;20.15;29.33
31595;BME280;18200;48.726;8.892;2023-02-11T13:03:46;98461.00;;;20.50;28.23
31595;BME280;18200;48.726;8.892;2023-02-11T13:07:50;98460.13;;;19.98;29.18
31595;BME280;18200;48.726;8.892;2023-02-11T13:11:54;98459.09;;;20.13;29.28
31595;BME280;18200;48.726;8.892;2023-02-11T13:16:12;98452.97;;;21.39;28.53
31595;BME280;18200;48.726;8.892;2023-02-11T13:20:25;98441.44;;;22.23;27.44
31595;BME280;18200;48.726;8.892;2023-02-11T13:24:41;98433.66;;;22.18;27.07
31595;BME280;18200;48.726;8.892;2023-02-11T13:36:54;98437.97;;;21.05;28.78
31595;BME280;18200;48.726;8.892;2023-02-11T13:41:21;98443.53;;;19.77;30.21
31595;BME280;18200;48.726;8.892;2023-02-11T13:46:40;98440.59;;;21.77;27.82
31595;BME280;18200;48.726;8.892;2023-02-11T13:49:58;98442.69;;;20.54;29.76
31595;BME280;18200;48.726;8.892;2023-02-11T13:54:00;98445.09;;;20.66;29.54
31595;BME280;18200;48.726;8.892;2023-02-11T14:06:35;98444.84;;;20.31;30.49
31595;BME280;18200;48.726;8.892;2023-02-11T14:15:37;98434.91;;;21.17;29.38
31595;BME280;18200;48.726;8.892;2023-02-11T14:19:47;98432.72;;;19.84;32.02
31595;BME280;18200;48.726;8.892;2023-02-11T14:23:49;98436.00;;;22.16;27.94
31595;BME280;18200;48.726;8.892;2023-02-11T14:28:02;98444.69;;;19.76;31.31
31595;BME280;18200;48.726;8.892;2023-02-11T14:37:02;98437.56;;;22.53;27.13
31595;BME280;18200;48.726;8.892;2023-02-11T14:41:18;98438.31;;;22.81;26.47
31595;BME280;18200;48.726;8.892;2023-02-11T14:45:24;98440.66;;;22.86;26.03
31595;BME280;18200;48.726;8.892;2023-02-11T14:49:28;98435.19;;;22.72;26.66
31595;BME280;18200;48.726;8.892;2023-02-11T14:53:31;98437.28;;;21.22;28.64
31595;BME280;18200;48.726;8.892;2023-02-11T14:57:32;98436.34;;;23.86;25.03
31595;BME280;18200;48.726;8.892;2023-02-11T15:01:38;98431.63;;;23.90;25.40
31595;BME280;18200;48.726;8.892;2023-02-11T15:05:39;98437.44;;;25.62;22.89
31595;BME280;18200;48.726;8.892;2023-02-11T15:09:43;98453.56;;;23.90;24.58
31595;BME280;18200;48.726;8.892;2023-02-11T15:13:44;98461.31;;;21.78;27.01
31595;BME280;18200;48.726;8.892;2023-02-11T15:17:49;98457.69;;;20.74;28.08
31595;BME280;18200;48.726;8.892;2023-02-11T15:21:50;98451.72;;;20.18;29.82
31595;BME280;18200;48.726;8.892;2023-02-11T15:25:51;98463.97;;;19.57;30.10
31595;BME280;18200;48.726;8.892;2023-02-11T15:29:55;98463.31;;;19.67;30.15
31595;BME280;18200;48.726;8.892;2023-02-11T15:34:05;98469.69;;;19.19;30.97
31595;BME280;18200;48.726;8.892;2023-02-11T15:38:10;98473.00;;;18.53;31.92
31595;BME280;18200;48.726;8.892;2023-02-11T15:46:36;98474.63;;;17.90;32.73
31595;BME280;18200;48.726;8.892;2023-02-11T15:50:40;98476.63;;;18.15;32.63
31595;BME280;18200;48.726;8.892;2023-02-11T15:54:44;98491.16;;;17.81;33.68
31595;BME280;18200;48.726;8.892;2023-02-11T15:58:47;98489.91;;;17.02;35.07
31595;BME280;18200;48.726;8.892;2023-02-11T16:02:49;98493.84;;;17.04;35.37
31595;BME280;18200;48.726;8.892;2023-02-11T16:06:50;98493.03;;;17.39;34.37
31595;BME280;18200;48.726;8.892;2023-02-11T16:11:03;98498.63;;;16.76;35.91
31595;BME280;18200;48.726;8.892;2023-02-11T16:15:27;98495.47;;;16.74;36.02
31595;BME280;18200;48.726;8.892;2023-02-11T16:19:28;98505.75;;;17.35;35.31
31595;BME280;18200;48.726;8.892;2023-02-11T16:23:34;98501.28;;;17.08;35.60
31595;BME280;18200;48.726;8.892;2023-02-11T16:27:40;98510.91;;;17.40;35.19
31595;BME280;18200;48.726;8.892;2023-02-11T16:31:43;98516.75;;;17.23;34.90
31595;BME280;18200;48.726;8.892;2023-02-11T16:35:44;98530.44;;;17.11;35.57
31595;BME280;18200;48.726;8.892;2023-02-11T16:39:46;98533.88;;;17.08;36.01
31595;BME280;18200;48.726;8.892;2023-02-11T16:43:47;98541.03;;;17.16;36.26
31595;BME280;18200;48.726;8.892;2023-02-11T16:47:47;98535.88;;;17.11;35.80
31595;BME280;18200;48.726;8.892;2023-02-11T16:51:49;98550.47;;;16.71;36.36
31595;BME280;18200;48.726;8.892;2023-02-11T16:55:51;98547.09;;;17.09;35.94
31595;BME280;18200;48.726;8.892;2023-02-11T16:59:51;98549.75;;;18.39;33.70
31595;BME280;18200;48.726;8.892;2023-02-11T17:03:52;98544.47;;;18.27;34.27
31595;BME280;18200;48.726;8.892;2023-02-11T17:07:53;98550.56;;;18.21;33.86
31595;BME280;18200;48.726;8.892;2023-02-11T17:11:53;98549.06;;;18.91;33.30
31595;BME280;18200;48.726;8.892;2023-02-11T17:15:53;98557.16;;;17.97;34.54
31595;BME280;18200;48.726;8.892;2023-02-11T17:19:54;98559.28;;;17.50;35.22
31595;BME280;18200;48.726;8.892;2023-02-11T17:23:54;98563.22;;;18.32;33.76
31595;BME280;18200;48.726;8.892;2023-02-11T17:27:54;98557.38;;;17.35;35.28
31595;BME280;18200;48.726;8.892;2023-02-11T17:31:55;98550.50;;;18.82;33.38
31595;BME280;18200;48.726;8.892;2023-02-11T17:35:56;98557.66;;;18.67;33.23
31595;BME280;18200;48.726;8.892;2023-02-11T17:39:56;98557.00;;;19.00;32.72
31595;BME280;18200;48.726;8.892;2023-02-11T17:43:57;98552.22;;;19.19;32.62
31595;BME280;18200;48.726;8.892;2023-02-11T17:47:58;98554.66;;;19.24;31.77
31595;BME280;18200;48.726;8.892;2023-02-11T17:51:58;98559.25;;;19.76;32.23
31595;BME280;18200;48.726;8.892;2023-02-11T17:56:00;98568.09;;;19.66;31.90
31595;BME280;18200;48.726;8.892;2023-02-11T18:00:06;98565.41;;;19.70;32.18
31595;BME280;18200;48.726;8.892;2023-02-11T18:04:16;98570.44;;;19.97;31.58
31595;BME280;18200;48.726;8.892;2023-02-11T18:08:16;98573.19;;;20.01;31.12
31595;BME280;18200;48.726;8.892;2023-02-11T18:12:17;98590.09;;;19.80;31.22
31595;BME280;18200;48.726;8.892;2023-02-11T18:16:25;98578.47;;;19.57;31.52
31595;BME280;18200;48.726;8.892;2023-02-11T18:20:27;98582.34;;;19.30;32.34
31595;BME280;18200;48.726;8.892;2023-02-11T18:24:28;98586.22;;;19.03;32.70
31595;BME280;18200;48.726;8.892;2023-02-11T18:28:28;98591.63;;;19.25;33.11
31595;BME280;18200;48.726;8.892;2023-02-11T18:32:29;98586.84;;;19.42;32.11
31595;BME280;18200;48.726;8.892;2023-02-11T18:36:29;98595.53;;;19.51;31.96
31595;BME280;18200;48.726;8.892;2023-02-11T18:40:29;98598.09;;;19.40;32.67
31595;BME280;18200;48.726;8.892;2023-02-11T18:44:30;98614.31;;;18.62;32.97
31595;BME280;18200;48.726;8.892;2023-02-11T18:48:30;98600.34;;;18.02;34.43
31595;BME280;18200;48.726;8.892;2023-02-11T18:52:32;98605.50;;;18.07;34.71
31595;BME280;18200;48.726;8.892;2023-02-11T18:56:33;98610.38;;;17.98;34.19
31595;BME280;18200;48.726;8.892;2023-02-11T19:00:34;98612.66;;;17.77;34.90
31595;BME280;18200;48.726;8.892;2023-02-11T19:04:35;98617.94;;;18.08;34.28
31595;BME280;18200;48.726;8.892;2023-02-11T19:08:36;98605.53;;;18.49;34.10
31595;BME280;18200;48.726;8.892;2023-02-11T19:12:36;98604.53;;;18.80;33.31
31595;BME280;18200;48.726;8.892;2023-02-11T19:16:40;98602.47;;;18.12;33.77
31595;BME280;18200;48.726;8.892;2023-02-11T19:20:42;98609.66;;;18.20;34.31
31595;BME280;18200;48.726;8.892;2023-02-11T19:24:43;98601.19;;;18.06;34.31
31595;BME280;18200;48.726;8.892;2023-02-11T19:28:43;98605.09;;;17.86;35.04
31595;BME280;18200;48.726;8.892;2023-02-11T19:32:44;98605.72;;;17.45;35.29
31595;BME280;18200;48.726;8.892;2023-02-11T19:36:45;98600.84;;;17.69;34.99
31595;BME280;18200;48.726;8.892;2023-02-11T19:40:45;98607.88;;;17.04;36.00
31595;BME280;18200;48.726;8.892;2023-02-11T19:44:46;98610.59;;;17.20;35.99
31595;BME280;18200;48.726;8.892;2023-02-11T19:48:47;98608.84;;;17.47;35.50
31595;BME280;18200;48.726;8.892;2023-02-11T19:52:47;98604.34;;;17.89;35.13
31595;BME280;18200;48.726;8.892;2023-02-11T19:56:48;98600.75;;;17.66;35.06
31595;BME280;18200;48.726;8.892;2023-02-11T20:00:48;98601.91;;;17.15;36.00
31595;BME280;18200;48.726;8.892;2023-02-11T20:04:49;98589.97;;;17.35;36.09
31595;BME280;18200;48.726;8.892;2023-02-11T20:08:54;98600.56;;;17.94;35.27
31595;BME280;18200;48.726;8.892;2023-02-11T20:12:55;98595.03;;;18.28;34.47
31595;BME280;18200;48.726;8.892;2023-02-11T20:16:55;98595.75;;;18.25;34.48
31595;BME280;18200;48.726;8.892;2023-02-11T20:20:56;98594.63;;;17.69;35.32
31595;BME280;18200;48.726;8.892;2023-02-11T20:24:56;98593.81;;;17.34;35.30
31595;BME280;18200;48.726;8.892;2023-02-11T20:28:58;98587.06;;;16.77;36.37
31595;BME280;18200;48.726;8.892;2023-02-11T20:33:02;98585.09;;;17.25;36.25
31595;BME280;18200;48.726;8.892;2023-02-11T20:37:02;98585.31;;;17.70;35.89
31595;BME280;18200;48.726;8.892;2023-02-11T20:41:10;98587.81;;;17.78;35.18
31595;BME280;18200;48.726;8.892;2023-02-11T20:45:13;98590.00;;;17.89;34.92
31595;BME280;18200;48.726;8.892;2023-02-11T20:49:15;98591.16;;;17.53;35.40
31595;BME280;18200;48.726;8.892;2023-02-11T20:53:16;98608.06;;;17.81;35.51
31595;BME280;18200;48.726;8.892;2023-02-11T20:57:16;98603.00;;;17.99;35.04
31595;BME280;18200;48.726;8.892;2023-02-11T21:01:20;98610.09;;;18.03;34.91
31595;BME280;18200;48.726;8.892;2023-02-11T21:05:20;98606.94;;;17.63;35.72
31595;BME280;18200;48.726;8.892;2023-02-11T21:09:23;98607.06;;;18.08;35.03
31595;BME280;18200;48.726;8.892;2023-02-11T21:13:24;98612.94;;;18.10;34.72
31595;BME280;18200;48.726;8.892;2023-02-11T21:17:24;98620.53;;;17.63;34.74
31595;BME280;18200;48.726;8.892;2023-02-11T21:21:28;98614.78;;;17.68;35.59
31595;BME280;18200;48.726;8.892;2023-02-11T21:25:28;98612.66;;;17.77;35.39
31595;BME280;18200;48.726;8.892;2023-02-11T21:29:28;98610.16;;;17.88;35.19
31595;BME280;18200;48.726;8.892;2023-02-11T21:33:29;98625.72;;;17.37;35.51
31595;BME280;18200;48.726;8.892;2023-02-11T21:37:32;98614.78;;;17.68;35.50
31595;BME280;18200;48.726;8.892;2023-02-11T21:41:33;98617.31;;;17.42;36.36
31595;BME280;18200;48.726;8.892;2023-02-11T21:45:34;98624.38;;;17.62;35.47
31595;BME280;18200;48.726;8.892;2023-02-11T21:49:34;98626.66;;;17.60;35.28
31595;BME280;18200;48.726;8.892;2023-02-11T21:53:34;98625.88;;;17.78;35.53
31595;BME280;18200;48.726;8.892;2023-02-11T21:57:35;98638.50;;;17.87;34.81
31595;BME280;18200;48.726;8.892;2023-02-11T22:01:35;98633.78;;;16.55;36.70
31595;BME280;18200;48.726;8.892;2023-02-11T22:05:39;98624.44;;;17.15;36.16
31595;BME280;18200;48.726;8.892;2023-02-11T22:09:39;98633.38;;;17.66;35.82
31595;BME280;18200;48.726;8.892;2023-02-11T22:13:41;98620.63;;;17.51;35.67
31595;BME280;18200;48.726;8.892;2023-02-11T22:17:41;98619.63;;;17.08;36.43
31595;BME280;18200;48.726;8.892;2023-02-11T22:21:41;98624.38;;;17.46;36.03
31595;BME280;18200;48.726;8.892;2023-02-11T22:25:42;98628.41;;;17.87;34.77
31595;BME280;18200;48.726;8.892;2023-02-11T22:29:42;98642.22;;;17.13;35.72
31595;BME280;18200;48.726;8.892;2023-02-11T22:33:43;98639.66;;;17.35;36.44
31595;BME280;18200;48.726;8.892;2023-02-11T22:37:44;98638.19;;;16.75;37.14
31595;BME280;18200;48.726;8.892;2023-02-11T22:41:45;98635.28;;;17.31;36.33
31595;BME280;18200;48.726;8.892;2023-02-11T22:45:47;98645.44;;;17.34;36.06
31595;BME280;18200;48.726;8.892;2023-02-11T22:49:47;98647.22;;;17.11;36.06
31595;BME280;18200;48.726;8.892;2023-02-11T22:53:53;98648.00;;;16.95;37.57
31595;BME280;18200;48.726;8.892;2023-02-11T22:57:53;98655.69;;;17.56;36.17
31595;BME280;18200;48.726;8.892;2023-02-11T23:01:53;98648.97;;;17.03;36.76
31595;BME280;18200;48.726;8.892;2023-02-11T23:05:56;98641.69;;;17.23;36.71
31595;BME280;18200;48.726;8.892;2023-02-11T23:09:57;98645.59;;;17.56;36.12
31595;BME280;18200;48.726;8.892;2023-02-11T23:13:57;98648.56;;;17.36;35.70
31595;BME280;18200;48.726;8.892;2023-02-11T23:17:58;98648.25;;;17.06;36.36